createdAt,value
2022-08-17T00:00:43.099Z,83.04
2022-08-17T00:03:23.079Z,82.64
2022-08-17T00:06:30.917Z,82.98
2022-08-17T00:09:38.490Z,83.59
2022-08-17T00:12:46.834Z,83.49
2022-08-17T00:15:54.703Z,83.49
2022-08-17T00:19:08.309Z,83.18
2022-08-17T00:22:34.430Z,83.04
2022-08-17T00:25:11.123Z,82.64
2022-08-17T00:28:19.337Z,82.75
2022-08-17T00:31:28.858Z,82.48
2022-08-17T00:34:36.309Z,82.68
2022-08-17T00:37:44.587Z,82.58
2022-08-17T00:40:55.996Z,82.68
2022-08-17T00:43:55.960Z,82.68
2022-08-17T00:47:04.610Z,82.78
2022-08-17T00:50:13.755Z,83.18
2022-08-17T00:53:21.561Z,83.59
2022-08-17T00:56:31.016Z,83.49
2022-08-17T00:59:38.594Z,83.73
2022-08-17T01:02:46.447Z,83.03
2022-08-17T01:05:54.527Z,82.52
2022-08-17T01:09:02.891Z,83.23
2022-08-17T01:12:10.848Z,83.76
2022-08-17T01:15:18.580Z,83.87
2022-08-17T01:18:26.724Z,83.57
2022-08-17T01:21:34.495Z,83.37
2022-08-17T01:24:42.252Z,83.47
2022-08-17T01:27:50.314Z,81.90
2022-08-17T01:30:59.540Z,82.20
2022-08-17T01:34:07.996Z,83.11
2022-08-17T01:37:16.319Z,83.61
2022-08-17T01:40:23.925Z,83.31
2022-08-17T01:43:32.146Z,83.81
2022-08-17T01:46:40.418Z,83.61
2022-08-17T01:49:47.904Z,83.47
2022-08-17T01:52:56.082Z,83.71
2022-08-17T01:56:03.886Z,84.01
2022-08-17T01:59:11.904Z,83.57
2022-08-17T02:02:30.638Z,83.57
2022-08-17T02:05:25.499Z,83.91
2022-08-17T02:08:39.547Z,84.41
2022-08-17T02:11:38.439Z,84.55
2022-08-17T02:14:46.214Z,84.95
2022-08-17T02:17:54.705Z,84.75
2022-08-17T02:21:03.080Z,84.75
2022-08-17T02:24:10.905Z,84.35
2022-08-17T02:27:18.923Z,85.30
2022-08-17T02:31:02.094Z,86.21
2022-08-17T02:33:42.128Z,86.10
2022-08-17T02:36:37.848Z,85.30
2022-08-17T02:39:45.360Z,84.89
2022-08-17T02:42:53.199Z,84.89
2022-08-17T02:46:01.078Z,85.34
2022-08-17T02:49:09.363Z,85.44
2022-08-17T02:52:17.071Z,85.60
2022-08-17T02:55:22.370Z,85.40
2022-08-17T02:58:35.075Z,85.74
2022-08-17T03:01:33.258Z,85.44
2022-08-17T03:04:41.156Z,84.94
2022-08-17T03:07:49.305Z,84.74
2022-08-17T03:10:56.686Z,85.24
2022-08-17T03:14:04.827Z,85.14
2022-08-17T03:17:17.182Z,84.69
2022-08-17T03:20:14.177Z,85.10
2022-08-17T03:23:23.974Z,85.10
2022-08-17T03:26:33.431Z,84.69
2022-08-17T03:29:40.953Z,84.89
2022-08-17T03:32:48.950Z,85.10
2022-08-17T03:35:56.400Z,85.34
2022-08-17T03:39:04.666Z,84.94
2022-08-17T03:42:14.326Z,85.54
2022-08-17T03:45:17.767Z,86.49
2022-08-17T03:48:26.101Z,85.58
2022-08-17T03:51:34.410Z,85.98
2022-08-17T03:54:41.750Z,86.93
2022-08-17T03:57:49.971Z,86.93
2022-08-17T04:00:57.844Z,87.34
2022-08-17T04:04:05.572Z,87.07
2022-08-17T04:07:13.422Z,87.27
2022-08-17T04:10:25.944Z,87.48
2022-08-17T04:13:24.770Z,87.48
2022-08-17T04:16:32.997Z,87.18
2022-08-17T04:19:41.317Z,87.27
2022-08-17T04:22:49.281Z,87.58
2022-08-17T04:25:59.382Z,87.38
2022-08-17T04:29:07.350Z,87.23
2022-08-17T04:32:14.841Z,86.99
2022-08-17T04:35:23.178Z,85.88
2022-08-17T04:38:31.277Z,86.29
2022-08-17T04:41:38.575Z,87.34
2022-08-17T04:44:40.486Z,87.74
2022-08-17T04:47:47.836Z,87.54
2022-08-17T04:50:55.817Z,86.79
2022-08-17T04:54:03.888Z,86.85
2022-08-17T04:57:11.268Z,86.15
2022-08-17T05:00:19.463Z,85.40
2022-08-17T05:03:27.229Z,85.00
2022-08-17T05:06:34.973Z,84.09
2022-08-17T05:09:42.904Z,84.15
2022-08-17T05:12:50.765Z,83.65
2022-08-17T05:15:58.468Z,82.90
2022-08-17T05:19:06.945Z,83.11
2022-08-17T05:22:14.766Z,84.17
2022-08-17T05:25:25.643Z,83.57
2022-08-17T05:28:26.603Z,83.26
2022-08-17T05:31:24.571Z,83.37
2022-08-17T05:34:32.449Z,84.27
2022-08-17T05:37:40.273Z,83.97
2022-08-17T05:40:48.125Z,83.87
2022-08-17T05:43:56.567Z,83.73
2022-08-17T05:47:04.356Z,83.73
2022-08-17T05:50:12.376Z,83.18
2022-08-17T05:53:15.079Z,82.24
2022-08-17T05:56:29.765Z,81.54
2022-08-17T05:59:27.640Z,81.67
2022-08-17T06:02:35.071Z,80.82
2022-08-17T06:05:43.302Z,80.48
2022-08-17T06:08:51.434Z,79.98
2022-08-17T06:11:59.592Z,78.64
2022-08-17T06:15:08.047Z,77.60
2022-08-17T06:18:18.990Z,77.30
2022-08-17T06:21:16.506Z,78.86
2022-08-17T06:24:24.595Z,78.63
2022-08-17T06:27:31.961Z,76.83
2022-08-17T06:30:59.251Z,78.09
2022-08-17T06:33:45.223Z,77.29
2022-08-17T06:36:53.072Z,77.25
2022-08-17T06:40:02.053Z,76.72
2022-08-17T06:43:10.205Z,76.22
2022-08-17T06:46:18.326Z,75.42
2022-08-17T06:49:26.200Z,74.58
2022-08-17T06:52:45.584Z,75.18
2022-08-17T06:55:39.811Z,74.85
2022-08-17T06:58:47.402Z,73.35
2022-08-17T07:01:55.573Z,73.15
2022-08-17T07:05:03.214Z,72.55
2022-08-17T07:08:11.384Z,73.02
2022-08-17T07:11:19.516Z,73.32
2022-08-17T07:14:26.868Z,72.42
2022-08-17T07:17:46.934Z,72.22
2022-08-17T07:20:39.680Z,72.28
2022-08-17T07:23:47.842Z,72.68
2022-08-17T07:26:56.182Z,71.65
2022-08-17T07:30:06.851Z,70.62
2022-08-17T07:33:07.615Z,68.83
2022-08-17T07:36:09.945Z,69.99
2022-08-17T07:39:17.756Z,69.09
2022-08-17T07:42:25.388Z,71.05
2022-08-17T07:45:33.098Z,71.05
2022-08-17T07:48:41.290Z,72.01
2022-08-17T07:51:48.924Z,70.68
2022-08-17T07:54:56.753Z,70.98
2022-08-17T07:58:04.445Z,69.96
2022-08-17T08:01:11.856Z,69.72
2022-08-17T08:04:49.680Z,68.53
2022-08-17T08:07:27.069Z,67.11
2022-08-17T08:10:34.491Z,64.40
2022-08-17T08:13:42.896Z,64.40
2022-08-17T08:16:50.207Z,62.88
2022-08-17T08:19:58.243Z,63.45
2022-08-17T08:23:06.367Z,61.83
2022-08-17T08:26:17.975Z,62.92
2022-08-17T08:29:15.964Z,63.42
2022-08-17T08:32:25.011Z,60.74
2022-08-17T08:35:32.609Z,61.30
2022-08-17T08:38:40.907Z,61.60
2022-08-17T08:41:48.721Z,60.68
2022-08-17T08:45:00.923Z,60.75
2022-08-17T08:48:05.282Z,63.39
2022-08-17T08:51:02.723Z,62.57
2022-08-17T08:54:10.379Z,60.86
2022-08-17T08:57:32.843Z,62.01
2022-08-17T09:00:23.687Z,59.74
2022-08-17T09:03:51.754Z,58.75
2022-08-17T09:06:39.301Z,59.05
2022-08-17T09:09:37.582Z,61.29
2022-08-17T09:12:45.973Z,58.43
2022-08-17T09:15:54.976Z,57.42
2022-08-17T09:19:04.720Z,55.64
2022-08-17T09:22:13.168Z,56.10
2022-08-17T09:25:21.890Z,56.10
2022-08-17T09:28:30.134Z,54.43
2022-08-17T09:31:47.093Z,54.90
2022-08-17T09:34:47.028Z,55.88
2022-08-17T09:37:45.507Z,55.16
2022-08-17T09:40:53.767Z,53.49
2022-08-17T09:44:01.577Z,52.11
2022-08-17T09:47:09.609Z,54.55
2022-08-17T09:50:17.452Z,56.20
2022-08-17T09:53:25.669Z,51.07
2022-08-17T09:56:33.617Z,51.45
2022-08-17T09:59:41.878Z,51.72
2022-08-17T10:02:49.839Z,51.81
2022-08-17T10:05:57.868Z,53.75
2022-08-17T10:09:06.117Z,44.98
2022-08-17T10:12:13.622Z,45.48
2022-08-17T10:15:14.922Z,47.15
2022-08-17T10:18:25.570Z,46.56
2022-08-17T10:21:29.251Z,47.03
2022-08-17T10:24:37.115Z,42.71
2022-08-17T10:27:44.899Z,46.34
2022-08-17T10:31:05.297Z,44.55
2022-08-17T10:33:58.411Z,44.55
2022-08-17T10:37:06.302Z,45.31
2022-08-17T10:40:14.149Z,43.35
2022-08-17T10:43:22.144Z,41.98
2022-08-17T10:46:31.168Z,42.18
2022-08-17T10:49:28.038Z,41.58
2022-08-17T10:52:36.358Z,42.55
2022-08-17T10:55:44.507Z,39.92
2022-08-17T10:58:53.503Z,41.90
2022-08-17T11:02:02.013Z,40.92
2022-08-17T11:05:10.324Z,41.41
2022-08-17T11:08:18.485Z,40.72
2022-08-17T11:11:27.786Z,42.76
2022-08-17T11:14:36.329Z,41.00
2022-08-17T11:17:44.780Z,40.90
2022-08-17T11:20:52.677Z,41.45
2022-08-17T11:24:00.961Z,41.13
2022-08-17T11:27:08.764Z,39.84
2022-08-17T11:30:09.814Z,41.21
2022-08-17T11:33:17.716Z,41.58
2022-08-17T11:36:19.207Z,39.12
2022-08-17T11:39:27.782Z,37.67
2022-08-17T11:42:35.131Z,39.14
2022-08-17T11:45:43.409Z,40.50
2022-08-17T11:48:50.805Z,40.31
2022-08-17T11:51:59.054Z,39.53
2022-08-17T11:55:33.546Z,42.17
2022-08-17T11:58:12.457Z,37.39
2022-08-17T12:01:20.750Z,38.78
2022-08-17T12:04:28.293Z,38.00
2022-08-17T12:07:36.668Z,38.00
2022-08-17T12:10:45.082Z,38.39
2022-08-17T12:13:52.605Z,38.47
2022-08-17T12:17:01.035Z,41.97
2022-08-17T12:20:08.934Z,38.04
2022-08-17T12:23:16.619Z,37.10
2022-08-17T12:26:24.929Z,37.10
2022-08-17T12:29:38.793Z,37.88
2022-08-17T12:32:36.717Z,40.43
2022-08-17T12:35:45.085Z,36.32
2022-08-17T12:38:53.465Z,37.71
2022-08-17T12:42:02.874Z,37.19
2022-08-17T12:45:11.857Z,38.84
2022-08-17T12:48:19.931Z,38.90
2022-08-17T12:51:28.162Z,37.30
2022-08-17T12:54:36.520Z,37.77
2022-08-17T12:57:44.662Z,36.68
2022-08-17T13:00:53.503Z,36.68
2022-08-17T13:04:01.151Z,37.40
2022-08-17T13:07:10.168Z,36.26
2022-08-17T13:10:18.400Z,35.61
2022-08-17T13:13:26.712Z,37.88
2022-08-17T13:16:34.903Z,37.71
2022-08-17T13:19:43.214Z,39.94
2022-08-17T13:22:51.689Z,39.80
2022-08-17T13:26:00.557Z,37.29
2022-08-17T13:29:08.890Z,36.66
2022-08-17T13:32:19.984Z,36.19
2022-08-17T13:35:38.878Z,36.10
2022-08-17T13:38:34.115Z,36.43
2022-08-17T13:41:42.575Z,36.72
2022-08-17T13:44:50.358Z,36.83
2022-08-17T13:47:58.888Z,38.61
2022-08-17T13:51:07.168Z,38.82
2022-08-17T13:54:15.714Z,38.65
2022-08-17T13:57:24.643Z,39.14
2022-08-17T14:00:33.015Z,39.92
2022-08-17T14:03:41.303Z,39.35
2022-08-17T14:06:53.252Z,39.64
2022-08-17T14:09:47.408Z,39.06
2022-08-17T14:12:55.678Z,39.17
2022-08-17T14:16:04.359Z,39.66
2022-08-17T14:19:12.163Z,39.66
2022-08-17T14:22:21.004Z,38.76
2022-08-17T14:25:28.766Z,40.03
2022-08-17T14:28:37.356Z,40.43
2022-08-17T14:31:40.419Z,39.35
2022-08-17T14:34:50.638Z,40.72
2022-08-17T14:37:59.442Z,39.45
2022-08-17T14:41:07.611Z,39.64
2022-08-17T14:44:15.853Z,40.03
2022-08-17T14:47:24.175Z,39.96
2022-08-17T14:50:35.466Z,39.96
2022-08-17T14:53:33.388Z,40.25
2022-08-17T14:56:42.246Z,40.25
2022-08-17T14:59:42.308Z,40.66
2022-08-17T15:02:51.002Z,40.56
2022-08-17T15:05:58.924Z,41.76
2022-08-17T15:09:07.608Z,41.08
2022-08-17T15:12:15.919Z,41.66
2022-08-17T15:15:24.136Z,40.88
2022-08-17T15:18:32.960Z,41.27
2022-08-17T15:21:41.213Z,41.76
2022-08-17T15:24:49.481Z,41.27
2022-08-17T15:27:57.915Z,41.08
2022-08-17T15:31:06.230Z,41.96
2022-08-17T15:34:14.527Z,41.49
2022-08-17T15:37:23.539Z,42.08
2022-08-17T15:40:31.972Z,42.29
2022-08-17T15:43:34.054Z,42.80
2022-08-17T15:46:42.964Z,43.71
2022-08-17T15:49:51.227Z,42.75
2022-08-17T15:53:00.667Z,44.05
2022-08-17T15:56:08.351Z,43.18
2022-08-17T15:59:17.048Z,43.50
2022-08-17T16:03:22.921Z,43.82
2022-08-17T16:05:31.361Z,44.21
2022-08-17T16:08:40.418Z,46.08
2022-08-17T16:11:53.771Z,47.19
2022-08-17T16:14:53.240Z,48.00
2022-08-17T16:18:01.397Z,48.47
2022-08-17T16:21:09.645Z,48.64
2022-08-17T16:24:18.532Z,48.61
2022-08-17T16:27:26.762Z,47.41
2022-08-17T16:30:35.252Z,48.39
2022-08-17T16:33:43.484Z,48.39
2022-08-17T16:36:50.505Z,49.87
2022-08-17T16:39:53.991Z,48.49
2022-08-17T16:43:02.098Z,49.08
2022-08-17T16:46:10.376Z,48.82
2022-08-17T16:49:34.449Z,49.60
2022-08-17T16:52:32.476Z,51.18
2022-08-17T16:55:29.669Z,50.51
2022-08-17T16:58:38.073Z,50.95
2022-08-17T17:01:48.442Z,51.07
2022-08-17T17:04:56.929Z,53.57
2022-08-17T17:08:05.732Z,53.39
2022-08-17T17:11:14.411Z,53.99
2022-08-17T17:14:22.613Z,55.89
2022-08-17T17:17:30.603Z,55.79
2022-08-17T17:20:38.514Z,56.91
2022-08-17T17:23:46.855Z,55.62
2022-08-17T17:26:55.407Z,56.21
2022-08-17T17:30:03.192Z,56.81
2022-08-17T17:33:11.835Z,58.09
2022-08-17T17:36:19.403Z,59.31
2022-08-17T17:39:27.312Z,59.41
2022-08-17T17:42:35.362Z,57.95
2022-08-17T17:45:43.051Z,57.73
2022-08-17T17:48:51.098Z,58.12
2022-08-17T17:52:08.692Z,60.00
2022-08-17T17:55:03.929Z,60.89
2022-08-17T17:58:12.044Z,60.99
2022-08-17T18:01:20.043Z,61.51
2022-08-17T18:04:28.118Z,62.56
2022-08-17T18:07:36.103Z,64.07
2022-08-17T18:10:44.005Z,65.09
2022-08-17T18:13:46.239Z,66.32
2022-08-17T18:16:55.632Z,65.86
2022-08-17T18:20:03.714Z,65.89
2022-08-17T18:23:11.629Z,66.08
2022-08-17T18:26:19.086Z,66.51
2022-08-17T18:29:27.225Z,66.74
2022-08-17T18:32:35.716Z,66.97
2022-08-17T18:35:43.251Z,67.40
2022-08-17T18:38:51.656Z,68.50
2022-08-17T18:41:58.970Z,68.63
2022-08-17T18:45:07.072Z,69.43
2022-08-17T18:48:15.419Z,69.56
2022-08-17T18:51:26.291Z,69.56
2022-08-17T18:54:28.746Z,70.15
2022-08-17T18:57:36.638Z,70.29
2022-08-17T19:00:44.928Z,70.79
2022-08-17T19:03:53.169Z,71.19
2022-08-17T19:07:01.333Z,71.28
2022-08-17T19:10:09.351Z,70.98
2022-08-17T19:13:24.307Z,71.19
2022-08-17T19:16:22.965Z,71.22
2022-08-17T19:19:30.695Z,71.32
2022-08-17T19:22:39.136Z,71.65
2022-08-17T19:25:47.067Z,72.78
2022-08-17T19:28:55.748Z,73.28
2022-08-17T19:32:03.759Z,73.72
2022-08-17T19:35:16.550Z,74.75
2022-08-17T19:38:14.952Z,75.85
2022-08-17T19:41:23.392Z,76.58
2022-08-17T19:44:31.518Z,76.68
2022-08-17T19:48:05.071Z,76.88
2022-08-17T19:50:44.747Z,77.38
2022-08-17T19:54:05.528Z,77.04
2022-08-17T19:57:01.738Z,77.14
2022-08-17T20:00:09.917Z,76.54
2022-08-17T20:03:18.113Z,76.75
2022-08-17T20:06:26.047Z,77.25
2022-08-17T20:09:34.118Z,77.55
2022-08-17T20:12:41.996Z,77.44
2022-08-17T20:15:49.557Z,77.44
2022-08-17T20:18:57.767Z,77.44
2022-08-17T20:22:05.341Z,77.64
2022-08-17T20:25:13.853Z,77.88
2022-08-17T20:28:22.045Z,78.52
2022-08-17T20:31:30.970Z,78.81
2022-08-17T20:34:39.387Z,78.72
2022-08-17T20:37:47.283Z,79.16
2022-08-17T20:40:55.094Z,79.55
2022-08-17T20:44:04.708Z,79.96
2022-08-17T20:47:12.622Z,79.96
2022-08-17T20:50:20.429Z,79.65
2022-08-17T20:53:28.390Z,79.96
2022-08-17T20:56:36.654Z,80.76
2022-08-17T20:59:45.102Z,80.55
2022-08-17T21:02:53.074Z,80.65
2022-08-17T21:06:01.338Z,80.26
2022-08-17T21:09:08.983Z,80.35
2022-08-17T21:12:17.121Z,80.15
2022-08-17T21:15:24.690Z,79.75
2022-08-17T21:18:32.953Z,79.85
2022-08-17T21:21:41.294Z,80.29
2022-08-17T21:24:49.283Z,80.43
2022-08-17T21:27:57.069Z,80.63
2022-08-17T21:31:05.741Z,80.93
2022-08-17T21:34:15.497Z,81.37
2022-08-17T21:37:23.713Z,81.47
2022-08-17T21:40:31.840Z,82.01
2022-08-17T21:43:39.665Z,81.81
2022-08-17T21:46:47.623Z,82.21
2022-08-17T21:49:55.573Z,83.25
2022-08-17T21:53:03.450Z,83.55
2022-08-17T21:56:10.944Z,84.49
2022-08-17T21:59:19.179Z,85.44
2022-08-17T22:02:26.997Z,86.33
2022-08-17T22:05:34.881Z,86.33
2022-08-17T22:08:43.082Z,86.33
2022-08-17T22:11:50.540Z,86.04
2022-08-17T22:14:58.730Z,85.60
2022-08-17T22:18:06.563Z,85.33
2022-08-17T22:21:14.133Z,86.28
2022-08-17T22:24:22.054Z,86.58
2022-08-17T22:27:29.962Z,86.28
2022-08-17T22:30:37.698Z,86.48
2022-08-17T22:33:45.504Z,86.04
2022-08-17T22:36:52.932Z,85.83
2022-08-17T22:40:01.162Z,86.28
2022-08-17T22:43:09.038Z,86.28
2022-08-17T22:46:16.475Z,86.18
2022-08-17T22:49:24.732Z,86.38
2022-08-17T22:52:32.723Z,86.38
2022-08-17T22:55:40.643Z,86.68
2022-08-17T22:58:58.796Z,86.58
2022-08-17T23:01:53.975Z,86.28
2022-08-17T23:05:01.787Z,86.78
2022-08-17T23:08:09.630Z,86.88
2022-08-17T23:11:17.052Z,86.88
2022-08-17T23:14:25.256Z,86.78
2022-08-17T23:17:37.213Z,86.68
2022-08-17T23:20:34.225Z,86.68
2022-08-17T23:23:42.242Z,86.08
2022-08-17T23:26:50.158Z,85.68
2022-08-17T23:29:58.365Z,85.17
2022-08-17T23:33:06.608Z,84.97
2022-08-17T23:36:14.479Z,85.22
2022-08-17T23:39:27.653Z,85.31
2022-08-17T23:42:25.449Z,85.41
2022-08-17T23:45:33.704Z,85.46
2022-08-17T23:48:41.320Z,85.75
2022-08-17T23:51:49.225Z,86.26
2022-08-17T23:54:57.559Z,85.96
2022-08-17T23:58:05.484Z,86.40
